createdAt,value
2023-05-06T00:00:47.078Z,9.13
2023-05-06T00:03:19.910Z,5.30
2023-05-06T00:05:52.769Z,7.22
2023-05-06T00:08:27.184Z,7.15
2023-05-06T00:11:00.441Z,6.75
2023-05-06T00:13:33.233Z,11.75
2023-05-06T00:16:06.850Z,9.00
2023-05-06T00:18:39.713Z,6.45
2023-05-06T00:21:12.451Z,6.25
2023-05-06T00:23:46.548Z,7.30
2023-05-06T00:26:19.866Z,7.13
2023-05-06T00:28:52.856Z,6.60
2023-05-06T00:31:25.808Z,6.25
2023-05-06T00:36:31.648Z,6.18
2023-05-06T00:41:39.002Z,6.30
2023-05-06T00:44:14.145Z,8.07
2023-05-06T00:46:46.986Z,6.00
2023-05-06T00:49:20.427Z,5.05
2023-05-06T00:51:55.008Z,8.30
2023-05-06T00:54:29.790Z,6.45
2023-05-06T00:57:03.953Z,8.32
2023-05-06T00:59:37.172Z,6.72
2023-05-06T01:02:09.997Z,8.30
2023-05-06T01:07:27.572Z,6.63
2023-05-06T01:10:08.966Z,9.38
2023-05-06T01:12:47.621Z,7.57
2023-05-06T01:15:25.202Z,7.72
2023-05-06T01:18:02.160Z,6.05
2023-05-06T01:20:38.362Z,5.88
2023-05-06T01:23:14.816Z,6.50
2023-05-06T01:25:47.683Z,7.93
2023-05-06T01:28:21.964Z,6.53
2023-05-06T01:31:00.576Z,6.30
2023-05-06T01:33:37.933Z,5.85
2023-05-06T01:36:17.150Z,7.00
2023-05-06T01:38:58.947Z,9.15
2023-05-06T01:41:34.423Z,5.70
2023-05-06T01:44:09.812Z,6.68
2023-05-06T01:46:44.383Z,7.88
2023-05-06T01:49:19.660Z,8.10
2023-05-06T01:51:55.447Z,7.40
2023-05-06T01:54:34.140Z,5.53
2023-05-06T01:57:07.837Z,6.18
2023-05-06T02:02:13.706Z,6.53
2023-05-06T02:07:20.230Z,6.20
2023-05-06T02:09:54.421Z,6.72
2023-05-06T02:12:27.667Z,5.47
2023-05-06T02:15:01.023Z,7.18
2023-05-06T02:17:36.283Z,6.07
2023-05-06T02:20:10.924Z,5.18
2023-05-06T02:22:43.744Z,5.82
2023-05-06T02:25:17.996Z,5.03
2023-05-06T02:27:51.627Z,3.95
2023-05-06T02:30:24.518Z,5.85
2023-05-06T02:35:30.269Z,11.35
2023-05-06T02:38:03.122Z,6.00
2023-05-06T02:40:37.214Z,5.53
2023-05-06T02:43:09.950Z,6.47
2023-05-06T02:45:42.930Z,8.13
2023-05-06T02:48:16.553Z,6.70
2023-05-06T02:50:49.286Z,5.55
2023-05-06T02:53:22.138Z,4.95
2023-05-06T02:55:56.291Z,6.03
2023-05-06T02:58:29.415Z,5.13
2023-05-06T03:01:02.571Z,8.20
2023-05-06T03:03:35.559Z,6.18
2023-05-06T03:08:41.362Z,4.93
2023-05-06T03:13:48.819Z,8.00
2023-05-06T03:18:58.111Z,4.47
2023-05-06T03:21:31.590Z,4.82
2023-05-06T03:24:06.569Z,5.20
2023-05-06T03:26:41.852Z,6.13
2023-05-06T03:29:16.455Z,5.00
2023-05-06T03:31:51.589Z,5.35
2023-05-06T03:34:26.308Z,4.63
2023-05-06T03:37:00.289Z,4.50
2023-05-06T03:39:34.390Z,4.80
2023-05-06T03:42:10.610Z,5.10
2023-05-06T03:44:43.601Z,4.90
2023-05-06T03:49:53.116Z,4.28
2023-05-06T03:52:26.716Z,7.80
2023-05-06T03:55:02.332Z,5.78
2023-05-06T03:57:38.658Z,7.18
2023-05-06T04:00:13.703Z,5.13
2023-05-06T04:02:49.796Z,7.53
2023-05-06T04:05:28.914Z,7.00
2023-05-06T04:10:39.931Z,6.97
2023-05-06T04:13:20.016Z,6.97
2023-05-06T04:15:53.137Z,5.65
2023-05-06T04:18:30.588Z,8.23
2023-05-06T04:21:12.205Z,9.13
2023-05-06T04:23:47.618Z,7.10
2023-05-06T04:26:24.425Z,6.35
2023-05-06T04:28:59.253Z,7.78
2023-05-06T04:31:34.559Z,7.45
2023-05-06T04:34:10.900Z,6.65
2023-05-06T04:36:44.242Z,8.52
2023-05-06T04:39:34.282Z,8.07
2023-05-06T04:42:07.521Z,6.82
2023-05-06T04:44:49.836Z,6.55
2023-05-06T04:47:25.513Z,6.47
2023-05-06T04:49:59.296Z,7.20
2023-05-06T04:52:33.589Z,5.13
2023-05-06T04:55:07.118Z,5.25
2023-05-06T04:57:43.126Z,5.03
2023-05-06T05:00:19.692Z,5.35
2023-05-06T05:02:52.927Z,5.57
2023-05-06T05:05:26.326Z,5.22
2023-05-06T05:08:04.765Z,5.32
2023-05-06T05:10:42.414Z,5.22
2023-05-06T05:13:17.079Z,8.85
2023-05-06T05:15:55.647Z,5.22
2023-05-06T05:18:35.281Z,5.78
2023-05-06T05:21:14.193Z,5.25
2023-05-06T05:26:20.257Z,6.07
2023-05-06T05:28:54.461Z,7.20
2023-05-06T05:31:31.299Z,5.50
2023-05-06T05:34:04.643Z,6.45
2023-05-06T05:36:37.533Z,4.57
2023-05-06T05:39:13.959Z,5.22
2023-05-06T05:41:50.918Z,6.70
2023-05-06T05:44:25.289Z,3.97
2023-05-06T05:46:59.858Z,4.55
2023-05-06T05:49:33.195Z,4.82
2023-05-06T05:52:07.401Z,4.15
2023-05-06T05:54:40.517Z,4.20
2023-05-06T05:57:13.542Z,4.28
2023-05-06T05:59:47.556Z,5.13
2023-05-06T06:02:21.896Z,3.47
2023-05-06T06:04:55.522Z,5.15
2023-05-06T06:07:28.971Z,6.40
2023-05-06T06:15:11.101Z,5.65
2023-05-06T06:17:46.060Z,6.57
2023-05-06T06:20:19.509Z,10.80
2023-05-06T06:22:53.423Z,6.78
2023-05-06T06:25:26.300Z,14.10
2023-05-06T06:27:59.732Z,11.65
2023-05-06T06:30:32.508Z,8.27
2023-05-06T06:33:09.651Z,9.65
2023-05-06T06:35:42.553Z,13.02
2023-05-06T06:40:48.046Z,18.13
2023-05-06T06:43:20.908Z,16.63
2023-05-06T06:46:02.777Z,17.90
2023-05-06T06:51:09.815Z,21.08
2023-05-06T06:53:43.052Z,21.73
2023-05-06T06:56:16.314Z,23.10
2023-05-06T06:58:49.864Z,25.95
2023-05-06T07:01:24.905Z,23.98
2023-05-06T07:03:59.204Z,28.35
2023-05-06T07:06:32.029Z,32.42
2023-05-06T07:09:05.009Z,26.02
2023-05-06T07:14:10.694Z,30.13
2023-05-06T07:19:23.080Z,24.27
2023-05-06T07:21:56.979Z,24.83
2023-05-06T07:24:30.138Z,26.25
2023-05-06T07:27:03.034Z,27.25
2023-05-06T07:29:39.862Z,29.40
2023-05-06T07:32:12.921Z,25.50
2023-05-06T07:37:19.790Z,22.80
2023-05-06T07:39:52.850Z,21.70
2023-05-06T07:44:58.836Z,23.63
2023-05-06T07:50:08.314Z,21.75
2023-05-06T07:52:41.489Z,22.88
2023-05-06T07:55:14.349Z,23.17
2023-05-06T07:57:47.214Z,21.00
2023-05-06T08:00:20.490Z,21.50
2023-05-06T08:02:53.786Z,23.10
2023-05-06T08:05:28.061Z,24.13
2023-05-06T08:08:00.815Z,20.83
2023-05-06T08:10:33.880Z,20.52
2023-05-06T08:13:06.738Z,17.73
2023-05-06T08:15:40.304Z,19.20
2023-05-06T08:18:21.875Z,14.73
2023-05-06T08:20:57.314Z,13.85
2023-05-06T08:23:30.189Z,18.83
2023-05-06T08:28:36.094Z,18.10
2023-05-06T08:31:09.040Z,18.88
2023-05-06T08:36:16.344Z,23.80
2023-05-06T08:38:50.922Z,19.40
2023-05-06T08:41:25.579Z,23.35
2023-05-06T08:43:59.673Z,17.58
2023-05-06T08:46:32.804Z,16.48
2023-05-06T08:51:43.427Z,24.88
2023-05-06T08:54:16.951Z,22.45
2023-05-06T08:56:54.703Z,22.20
2023-05-06T08:59:30.453Z,24.35
2023-05-06T09:02:04.108Z,24.35
2023-05-06T09:04:38.371Z,22.08
2023-05-06T09:07:12.742Z,27.65
2023-05-06T09:09:45.647Z,29.25
2023-05-06T09:14:52.395Z,22.10
2023-05-06T09:17:26.778Z,18.90
2023-05-06T09:20:00.358Z,23.33
2023-05-06T09:22:34.679Z,14.00
2023-05-06T09:25:08.681Z,21.15
2023-05-06T09:27:41.834Z,18.85
2023-05-06T09:30:15.544Z,18.25
2023-05-06T09:32:49.746Z,21.85
2023-05-06T09:35:22.748Z,15.80
2023-05-06T09:37:57.627Z,21.65
2023-05-06T09:40:39.942Z,16.35
2023-05-06T09:43:15.574Z,15.83
2023-05-06T09:45:49.602Z,12.65
2023-05-06T09:48:23.303Z,15.55
2023-05-06T09:50:57.138Z,15.30
2023-05-06T09:53:33.272Z,18.20
2023-05-06T09:56:07.451Z,15.30
2023-05-06T09:58:40.575Z,10.57
2023-05-06T10:01:19.294Z,14.45
2023-05-06T10:04:02.077Z,15.45
2023-05-06T10:06:39.431Z,14.73
2023-05-06T10:09:14.746Z,13.32
2023-05-06T10:11:49.358Z,14.57
2023-05-06T10:14:22.237Z,13.40
2023-05-06T10:16:56.239Z,13.63
2023-05-06T10:19:29.640Z,15.73
2023-05-06T10:22:07.823Z,13.95
2023-05-06T10:24:48.330Z,17.10
2023-05-06T10:27:24.875Z,13.35
2023-05-06T10:30:00.473Z,13.20
2023-05-06T10:32:35.923Z,9.48
2023-05-06T10:35:13.458Z,9.15
2023-05-06T10:37:48.800Z,11.43
2023-05-06T10:40:24.295Z,13.13
2023-05-06T10:43:21.940Z,13.30
2023-05-06T10:46:02.601Z,6.00
2023-05-06T10:48:36.683Z,8.73
2023-05-06T10:51:27.202Z,10.75
2023-05-06T10:54:05.652Z,8.88
2023-05-06T10:57:02.647Z,12.35
2023-05-06T10:59:35.686Z,7.82
2023-05-06T11:02:12.281Z,7.97
2023-05-06T11:04:54.630Z,8.57
2023-05-06T11:07:28.074Z,9.10
2023-05-06T11:10:04.814Z,9.77
2023-05-06T11:12:50.391Z,9.13
2023-05-06T11:15:27.837Z,6.65
2023-05-06T11:18:00.668Z,6.40
2023-05-06T11:20:33.520Z,8.73
2023-05-06T11:23:06.405Z,9.20
2023-05-06T11:28:17.199Z,10.73
2023-05-06T11:30:56.132Z,7.32
2023-05-06T11:33:33.614Z,8.38
2023-05-06T11:36:07.758Z,7.82
2023-05-06T11:38:44.099Z,7.78
2023-05-06T11:41:17.498Z,8.07
2023-05-06T11:43:52.792Z,9.93
2023-05-06T11:46:26.099Z,9.10
2023-05-06T11:48:58.986Z,6.45
2023-05-06T11:54:10.020Z,6.78
2023-05-06T11:56:48.716Z,5.55
2023-05-06T11:59:30.230Z,7.22
2023-05-06T12:02:05.643Z,9.68
2023-05-06T12:04:55.947Z,9.77
2023-05-06T12:10:08.590Z,6.65
2023-05-06T12:12:41.783Z,8.02
2023-05-06T12:15:16.291Z,7.63
2023-05-06T12:17:49.362Z,10.77
2023-05-06T12:20:22.260Z,7.00
2023-05-06T12:23:06.916Z,5.40
2023-05-06T12:25:40.791Z,5.55
2023-05-06T12:28:16.624Z,7.68
2023-05-06T12:30:50.774Z,6.35
2023-05-06T12:33:24.427Z,6.43
2023-05-06T12:36:07.929Z,9.93
2023-05-06T12:38:50.373Z,9.38
2023-05-06T12:41:24.791Z,9.23
2023-05-06T12:43:57.573Z,8.75
2023-05-06T12:46:31.947Z,7.15
2023-05-06T12:49:05.580Z,15.90
2023-05-06T12:51:38.378Z,9.60
2023-05-06T12:56:58.575Z,9.07
2023-05-06T13:04:38.779Z,7.88
2023-05-06T13:07:12.067Z,6.03
2023-05-06T13:09:44.977Z,9.85
2023-05-06T13:12:17.710Z,6.63
2023-05-06T13:17:25.122Z,8.88
2023-05-06T13:19:58.636Z,9.35
2023-05-06T13:22:40.331Z,9.45
2023-05-06T13:25:20.062Z,8.60
2023-05-06T13:30:25.586Z,9.70
2023-05-06T13:32:59.825Z,9.40
2023-05-06T13:35:32.734Z,9.95
2023-05-06T13:40:38.383Z,7.68
2023-05-06T13:43:11.478Z,10.27
2023-05-06T13:45:44.970Z,8.82
2023-05-06T13:48:20.221Z,8.75
2023-05-06T13:50:52.949Z,8.38
2023-05-06T13:53:25.633Z,11.55
2023-05-06T13:58:31.034Z,10.15
2023-05-06T14:03:38.515Z,6.38
2023-05-06T14:06:11.692Z,6.63
2023-05-06T14:08:44.492Z,8.15
2023-05-06T14:13:51.676Z,4.55
2023-05-06T14:16:24.653Z,5.95
2023-05-06T14:18:59.284Z,6.10
2023-05-06T14:21:32.149Z,3.45
2023-05-06T14:24:07.341Z,5.00
2023-05-06T14:26:41.546Z,4.47
2023-05-06T14:29:14.419Z,6.00
2023-05-06T14:31:48.087Z,5.43
2023-05-06T14:34:23.570Z,2.97
2023-05-06T14:36:57.626Z,3.17
2023-05-06T14:39:30.828Z,5.28
2023-05-06T14:42:03.953Z,4.15
2023-05-06T14:44:36.889Z,5.32
2023-05-06T14:47:09.981Z,5.10
2023-05-06T14:52:38.901Z,3.10
2023-05-06T14:55:12.882Z,2.47
2023-05-06T14:57:45.925Z,3.50
2023-05-06T15:00:20.281Z,4.18
2023-05-06T15:02:53.233Z,4.70
2023-05-06T15:05:26.134Z,3.15
2023-05-06T15:08:00.420Z,2.65
2023-05-06T15:10:33.964Z,2.13
2023-05-06T15:13:07.006Z,3.33
2023-05-06T15:15:39.865Z,3.05
2023-05-06T15:20:46.234Z,2.95
2023-05-06T15:23:20.618Z,2.50
2023-05-06T15:25:53.736Z,2.92
2023-05-06T15:28:26.804Z,2.53
2023-05-06T15:30:59.573Z,4.05
2023-05-06T15:36:06.154Z,3.55
2023-05-06T15:38:59.879Z,4.82
2023-05-06T15:41:34.652Z,1.95
2023-05-06T15:44:09.966Z,3.03
2023-05-06T15:46:43.194Z,2.90
2023-05-06T15:49:47.452Z,6.40
2023-05-06T15:52:14.619Z,2.85
2023-05-06T15:54:50.078Z,3.42
2023-05-06T15:57:23.403Z,4.20
2023-05-06T15:59:56.897Z,3.92
2023-05-06T16:02:29.716Z,3.95
2023-05-06T16:05:03.117Z,4.50
2023-05-06T16:07:35.999Z,4.53
2023-05-06T16:10:10.722Z,5.35
2023-05-06T16:12:44.271Z,5.32
2023-05-06T16:15:17.551Z,4.10
2023-05-06T16:17:50.389Z,5.25
2023-05-06T16:20:23.960Z,6.70
2023-05-06T16:22:56.867Z,6.78
2023-05-06T16:25:32.749Z,5.90
2023-05-06T16:28:05.772Z,6.95
2023-05-06T16:30:40.624Z,6.50
2023-05-06T16:33:14.506Z,6.00
2023-05-06T16:35:47.233Z,5.15
2023-05-06T16:38:20.049Z,7.05
2023-05-06T16:43:27.255Z,4.75
2023-05-06T16:46:01.261Z,5.75
2023-05-06T16:48:34.507Z,5.97
2023-05-06T16:51:07.719Z,4.32
2023-05-06T16:53:40.755Z,6.28
2023-05-06T16:56:15.055Z,4.68
2023-05-06T16:58:47.850Z,7.03
2023-05-06T17:03:53.512Z,7.78
2023-05-06T17:09:03.241Z,5.78
2023-05-06T17:11:37.505Z,6.43
2023-05-06T17:14:11.122Z,6.15
2023-05-06T17:16:44.141Z,4.18
2023-05-06T17:19:16.956Z,5.63
2023-05-06T17:24:22.686Z,6.47
2023-05-06T17:26:57.242Z,4.60
2023-05-06T17:29:30.195Z,4.57
2023-05-06T17:32:03.303Z,4.28
2023-05-06T17:34:36.799Z,7.38
2023-05-06T17:37:09.909Z,7.15
2023-05-06T17:39:42.887Z,5.32
2023-05-06T17:42:21.909Z,6.20
2023-05-06T17:44:54.834Z,5.82
2023-05-06T17:50:03.431Z,7.18
2023-05-06T17:52:36.336Z,7.18
2023-05-06T17:55:16.372Z,8.15
2023-05-06T17:57:52.519Z,5.55
2023-05-06T18:00:26.848Z,4.07
2023-05-06T18:03:00.545Z,5.28
2023-05-06T18:05:34.570Z,5.28
2023-05-06T18:08:09.405Z,5.65
2023-05-06T18:10:43.062Z,7.78
2023-05-06T18:13:17.523Z,7.65
2023-05-06T18:15:50.329Z,6.90
2023-05-06T18:20:55.743Z,8.68
2023-05-06T18:23:29.604Z,7.55
2023-05-06T18:26:05.240Z,4.80
2023-05-06T18:28:41.379Z,4.75
2023-05-06T18:31:14.246Z,6.10
2023-05-06T18:36:19.986Z,5.18
2023-05-06T18:38:55.179Z,4.47
2023-05-06T18:41:27.926Z,4.72
2023-05-06T18:46:35.587Z,5.18
2023-05-06T18:49:08.747Z,4.47
2023-05-06T18:51:41.517Z,5.40
2023-05-06T18:54:16.166Z,7.45
2023-05-06T18:56:49.208Z,12.75
2023-05-06T19:01:56.382Z,12.05
2023-05-06T19:07:02.396Z,10.88
2023-05-06T19:12:09.881Z,14.30
2023-05-06T19:17:19.047Z,18.85
2023-05-06T19:19:51.893Z,17.75
2023-05-06T19:24:57.534Z,22.02
2023-05-06T19:30:05.068Z,19.10
2023-05-06T19:32:40.336Z,19.63
2023-05-06T19:35:13.299Z,20.95
2023-05-06T19:40:22.049Z,22.90
2023-05-06T19:42:54.945Z,23.73
2023-05-06T19:48:04.196Z,21.63
2023-05-06T19:50:37.351Z,21.20
2023-05-06T19:55:43.540Z,22.67
2023-05-06T19:58:17.308Z,19.98
2023-05-06T20:00:55.211Z,19.80
2023-05-06T20:03:30.501Z,18.33
2023-05-06T20:06:04.088Z,21.98
2023-05-06T20:08:37.034Z,23.05
2023-05-06T20:11:09.724Z,24.92
2023-05-06T20:13:42.511Z,19.73
2023-05-06T20:18:51.482Z,19.92
2023-05-06T20:21:24.270Z,20.23
2023-05-06T20:26:30.029Z,16.05
2023-05-06T20:29:02.982Z,17.35
2023-05-06T20:34:09.996Z,22.50
2023-05-06T20:39:15.872Z,17.50
2023-05-06T20:41:48.881Z,18.88
2023-05-06T20:44:21.643Z,16.55
2023-05-06T20:46:55.754Z,20.50
2023-05-06T20:49:30.252Z,18.48
2023-05-06T20:52:04.535Z,16.05
2023-05-06T20:54:37.705Z,18.48
2023-05-06T20:57:11.263Z,21.15
2023-05-06T20:59:44.777Z,16.02
2023-05-06T21:02:19.203Z,14.95
2023-05-06T21:04:52.069Z,11.85
2023-05-06T21:07:25.262Z,15.18
2023-05-06T21:09:58.029Z,13.63
2023-05-06T21:12:31.270Z,14.82
2023-05-06T21:15:04.529Z,14.88
2023-05-06T21:17:38.796Z,13.60
2023-05-06T21:20:12.822Z,14.32
2023-05-06T21:22:45.608Z,16.33
2023-05-06T21:25:18.325Z,13.23
2023-05-06T21:27:51.439Z,15.85
2023-05-06T21:30:24.252Z,12.70
2023-05-06T21:32:58.525Z,14.40
2023-05-06T21:35:31.656Z,13.30
2023-05-06T21:38:05.056Z,14.38
2023-05-06T21:40:39.412Z,17.00
2023-05-06T21:43:12.790Z,13.77
2023-05-06T21:45:45.739Z,11.38
2023-05-06T21:48:19.764Z,14.20
2023-05-06T21:50:54.837Z,14.63
2023-05-06T21:53:27.672Z,15.38
2023-05-06T21:56:00.680Z,11.98
2023-05-06T21:58:33.504Z,12.00
2023-05-06T22:01:06.793Z,12.85
2023-05-06T22:03:43.405Z,12.77
2023-05-06T22:06:19.763Z,12.88
2023-05-06T22:08:53.365Z,13.88
2023-05-06T22:11:28.037Z,12.75
2023-05-06T22:14:01.390Z,14.98
2023-05-06T22:16:35.562Z,17.38
2023-05-06T22:19:10.229Z,18.63
2023-05-06T22:21:43.063Z,14.77
2023-05-06T22:26:49.413Z,13.77
2023-05-06T22:29:22.507Z,21.38
2023-05-06T22:31:55.393Z,13.13
2023-05-06T22:34:30.608Z,19.48
2023-05-06T22:37:09.009Z,18.48
2023-05-06T22:39:42.263Z,18.80
2023-05-06T22:42:15.371Z,14.38
2023-05-06T22:44:48.145Z,12.93
2023-05-06T22:47:21.445Z,17.02
2023-05-06T22:49:56.527Z,16.52
2023-05-06T22:52:29.227Z,13.55
2023-05-06T22:55:02.297Z,13.65
2023-05-06T23:00:12.702Z,15.88
2023-05-06T23:02:47.075Z,13.77
2023-05-06T23:07:54.277Z,15.73
2023-05-06T23:10:27.965Z,18.67
2023-05-06T23:13:05.253Z,11.73
2023-05-06T23:15:38.524Z,14.55
2023-05-06T23:18:15.966Z,12.40
2023-05-06T23:20:51.351Z,15.95
2023-05-06T23:23:24.065Z,16.63
2023-05-06T23:25:56.948Z,11.98
2023-05-06T23:31:02.385Z,12.32
2023-05-06T23:33:35.423Z,11.82
2023-05-06T23:36:09.729Z,10.48
2023-05-06T23:38:42.613Z,12.85
2023-05-06T23:41:15.633Z,10.75
2023-05-06T23:43:48.570Z,9.85
2023-05-06T23:48:54.143Z,11.25
2023-05-06T23:51:28.276Z,15.55
2023-05-06T23:54:01.063Z,10.20
2023-05-06T23:56:33.913Z,10.18
